Hewittville, New York
Current Conditions -  °F | °C
As of 12:53 PM on Friday 24 Oct 2014 (Local Time) from KMSS Reporting Station
Overcast Overcast  
Wind Chill: 12°   Ceiling: 3900
Heat Index: 12°   Visibility: 10mi
Dew Point:   Wind: 0mph
Humidity: 64%   Direction: NA
Pressure: 29.9"   Gusts: NA
Location:  44.7612°N, 74.9585°W
Report Text: KMSS 241653Z AUTO 00000KT 10SM OVC039 12/06 A2990 RMK AO2 SLP127 T01220056
Loading
Personal Weather Stations






























Interactive Weather Map
Tropical Storm Tracking
New forecast layout! Learn more

10-Day Weather Forecast

Advertisements
Track Severe Weather on mobile